createdAt,value
2022-08-29T00:00:17.758Z,2.20
2022-08-29T00:01:15.422Z,2.30
2022-08-29T00:02:15.427Z,1.90
2022-08-29T00:03:15.384Z,2.20
2022-08-29T00:04:15.438Z,1.90
2022-08-29T00:05:15.374Z,2.30
2022-08-29T00:06:15.343Z,2.50
2022-08-29T00:07:15.335Z,2.20
2022-08-29T00:08:15.483Z,2.00
2022-08-29T00:09:15.335Z,2.50
2022-08-29T00:10:15.320Z,2.40
2022-08-29T00:11:15.413Z,2.20
2022-08-29T00:12:15.288Z,2.20
2022-08-29T00:13:15.267Z,2.50
2022-08-29T00:14:21.104Z,2.40
2022-08-29T00:15:16.247Z,2.40
2022-08-29T00:16:15.279Z,2.00
2022-08-29T00:17:15.218Z,2.20
2022-08-29T00:18:15.437Z,2.10
2022-08-29T00:19:15.189Z,2.60
2022-08-29T00:20:15.228Z,2.30
2022-08-29T00:21:15.167Z,2.10
2022-08-29T00:22:15.215Z,2.30
2022-08-29T00:23:15.148Z,2.40
2022-08-29T00:24:15.157Z,2.30
2022-08-29T00:25:15.164Z,2.70
2022-08-29T00:26:15.258Z,2.70
2022-08-29T00:27:15.109Z,3.00
2022-08-29T00:28:15.286Z,2.90
2022-08-29T00:29:15.100Z,2.40
2022-08-29T00:30:15.071Z,2.30
2022-08-29T00:31:15.105Z,2.30
2022-08-29T00:32:15.050Z,2.70
2022-08-29T00:33:15.059Z,2.40
2022-08-29T00:34:15.054Z,2.20
2022-08-29T00:35:15.084Z,2.40
2022-08-29T00:36:15.058Z,2.40
2022-08-29T00:37:15.025Z,2.60
2022-08-29T00:38:15.190Z,2.70
2022-08-29T00:39:14.988Z,2.50
2022-08-29T00:40:15.016Z,2.10
2022-08-29T00:41:14.954Z,2.50
2022-08-29T00:42:14.957Z,2.40
2022-08-29T00:43:14.943Z,2.70
2022-08-29T00:44:14.944Z,2.60
2022-08-29T00:45:14.912Z,2.70
2022-08-29T00:46:14.982Z,2.60
2022-08-29T00:47:14.933Z,2.90
2022-08-29T00:48:15.037Z,2.70
2022-08-29T00:49:14.885Z,2.80
2022-08-29T00:50:14.869Z,2.70
2022-08-29T00:51:14.844Z,2.40
2022-08-29T00:52:14.847Z,2.40
2022-08-29T00:53:14.827Z,3.00
2022-08-29T00:54:14.835Z,3.00
2022-08-29T00:55:14.795Z,2.70
2022-08-29T00:56:14.827Z,2.70
2022-08-29T00:57:14.795Z,3.00
2022-08-29T00:58:14.988Z,3.10
2022-08-29T00:59:14.789Z,2.80
2022-08-29T01:00:14.775Z,2.40
2022-08-29T01:01:14.794Z,2.90
2022-08-29T01:02:14.785Z,2.70
2022-08-29T01:03:14.720Z,2.70
2022-08-29T01:04:23.597Z,2.60
2022-08-29T01:05:15.739Z,2.90
2022-08-29T01:06:14.704Z,2.70
2022-08-29T01:07:14.678Z,3.40
2022-08-29T01:08:14.851Z,3.20
2022-08-29T01:09:14.649Z,2.80
2022-08-29T01:10:14.791Z,3.00
2022-08-29T01:11:14.621Z,2.30
2022-08-29T01:12:14.644Z,3.30
2022-08-29T01:13:14.589Z,2.70
2022-08-29T01:14:14.649Z,2.40
2022-08-29T01:15:14.576Z,2.30
2022-08-29T01:16:14.632Z,2.70
2022-08-29T01:17:14.580Z,2.60
2022-08-29T01:18:14.663Z,2.30
2022-08-29T01:19:14.560Z,2.30
2022-08-29T01:20:14.594Z,2.40
2022-08-29T01:21:14.510Z,2.80
2022-08-29T01:22:14.491Z,2.90
2022-08-29T01:23:14.495Z,2.60
2022-08-29T01:24:14.531Z,2.60
2022-08-29T01:25:14.466Z,2.90
2022-08-29T01:26:14.560Z,2.50
2022-08-29T01:27:14.446Z,2.60
2022-08-29T01:28:14.537Z,2.40
2022-08-29T01:29:14.435Z,2.60
2022-08-29T01:30:14.412Z,2.50
2022-08-29T01:31:14.429Z,2.50
2022-08-29T01:32:15.432Z,2.50
2022-08-29T01:33:14.383Z,2.40
2022-08-29T01:34:14.383Z,2.90
2022-08-29T01:35:14.363Z,2.70
2022-08-29T01:36:14.338Z,2.50
2022-08-29T01:37:14.336Z,2.60
2022-08-29T01:38:14.405Z,2.70
2022-08-29T01:39:14.324Z,2.70
2022-08-29T01:40:14.458Z,2.50
2022-08-29T01:41:14.285Z,3.10
2022-08-29T01:42:14.305Z,2.70
2022-08-29T01:43:14.257Z,2.70
2022-08-29T01:44:14.285Z,2.50
2022-08-29T01:45:14.265Z,2.80
2022-08-29T01:46:14.406Z,2.70
2022-08-29T01:47:15.167Z,2.50
2022-08-29T01:48:14.329Z,2.80
2022-08-29T01:49:14.219Z,2.50
2022-08-29T01:50:14.198Z,3.00
2022-08-29T01:51:14.175Z,2.70
2022-08-29T01:52:14.177Z,2.40
2022-08-29T01:53:14.153Z,2.90
2022-08-29T01:54:14.147Z,2.70
2022-08-29T01:55:14.138Z,2.70
2022-08-29T01:56:14.108Z,2.80
2022-08-29T01:57:14.111Z,2.50
2022-08-29T01:58:14.225Z,2.60
2022-08-29T01:59:14.079Z,2.70
2022-08-29T02:00:14.131Z,2.70
2022-08-29T02:01:14.111Z,2.60
2022-08-29T02:02:14.190Z,2.90
2022-08-29T02:03:14.042Z,2.80
2022-08-29T02:04:14.047Z,2.80
2022-08-29T02:05:14.030Z,2.70
2022-08-29T02:06:14.060Z,2.70
2022-08-29T02:07:13.995Z,2.60
2022-08-29T02:08:14.217Z,3.20
2022-08-29T02:09:13.963Z,2.60
2022-08-29T02:10:13.994Z,2.70
2022-08-29T02:11:13.950Z,2.60
2022-08-29T02:12:13.941Z,2.90
2022-08-29T02:13:13.931Z,3.10
2022-08-29T02:14:19.394Z,2.60
2022-08-29T02:15:14.903Z,2.80
2022-08-29T02:16:13.968Z,3.00
2022-08-29T02:17:13.882Z,2.60
2022-08-29T02:18:14.009Z,2.70
2022-08-29T02:19:13.868Z,2.60
2022-08-29T02:20:13.914Z,2.90
2022-08-29T02:21:13.846Z,2.80
2022-08-29T02:22:13.834Z,2.90
2022-08-29T02:23:30.161Z,2.80
2022-08-29T02:24:25.716Z,2.80
2022-08-29T02:25:14.804Z,2.90
2022-08-29T02:26:13.925Z,2.60
2022-08-29T02:27:13.776Z,3.00
2022-08-29T02:28:13.913Z,2.80
2022-08-29T02:29:13.760Z,2.40
2022-08-29T02:30:13.772Z,2.50
2022-08-29T02:31:13.815Z,2.70
2022-08-29T02:32:13.730Z,2.90
2022-08-29T02:33:13.696Z,2.50
2022-08-29T02:34:13.695Z,2.60
2022-08-29T02:35:13.696Z,2.70
2022-08-29T02:36:13.677Z,2.70
2022-08-29T02:37:13.658Z,2.70
2022-08-29T02:38:13.810Z,3.00
2022-08-29T02:39:13.636Z,2.80
2022-08-29T02:40:13.756Z,2.60
2022-08-29T02:41:14.369Z,2.80
2022-08-29T02:42:13.687Z,3.10
2022-08-29T02:43:13.599Z,3.40
2022-08-29T02:44:13.659Z,3.20
2022-08-29T02:45:13.575Z,3.30
2022-08-29T02:46:13.625Z,2.90
2022-08-29T02:47:13.550Z,3.00
2022-08-29T02:48:13.662Z,2.70
2022-08-29T02:49:13.541Z,2.80
2022-08-29T02:50:13.565Z,2.80
2022-08-29T02:51:13.513Z,2.40
2022-08-29T02:52:13.519Z,2.20
2022-08-29T02:53:13.488Z,3.10
2022-08-29T02:54:13.510Z,2.40
2022-08-29T02:55:13.473Z,2.40
2022-08-29T02:56:14.355Z,2.60
2022-08-29T02:57:13.443Z,2.40
2022-08-29T02:58:13.640Z,2.50
2022-08-29T02:59:13.661Z,2.70
2022-08-29T03:00:13.433Z,2.60
2022-08-29T03:01:13.425Z,2.60
2022-08-29T03:02:13.460Z,2.60
2022-08-29T03:03:13.382Z,3.00
2022-08-29T03:04:13.412Z,2.50
2022-08-29T03:05:13.352Z,2.70
2022-08-29T03:06:13.389Z,2.80
2022-08-29T03:07:13.354Z,3.10
2022-08-29T03:08:13.512Z,3.10
2022-08-29T03:09:13.314Z,3.00
2022-08-29T03:10:13.303Z,3.10
2022-08-29T03:11:13.297Z,2.60
2022-08-29T03:12:13.306Z,2.80
2022-08-29T03:13:13.287Z,3.20
2022-08-29T03:14:13.285Z,3.40
2022-08-29T03:15:13.253Z,3.40
2022-08-29T03:16:13.434Z,3.00
2022-08-29T03:17:13.232Z,3.10
2022-08-29T03:18:13.407Z,2.90
2022-08-29T03:19:13.206Z,2.80
2022-08-29T03:20:13.195Z,2.80
2022-08-29T03:21:13.177Z,2.50
2022-08-29T03:22:13.206Z,2.60
2022-08-29T03:23:13.168Z,3.10
2022-08-29T03:24:13.207Z,2.80
2022-08-29T03:25:13.135Z,2.70
2022-08-29T03:26:13.139Z,2.60
2022-08-29T03:27:13.106Z,2.70
2022-08-29T03:28:13.226Z,2.40
2022-08-29T03:29:13.087Z,3.00
2022-08-29T03:30:13.086Z,2.70
2022-08-29T03:31:13.111Z,3.10
2022-08-29T03:32:13.068Z,2.60
2022-08-29T03:33:13.054Z,3.00
2022-08-29T03:34:13.108Z,2.90
2022-08-29T03:35:13.019Z,3.00
2022-08-29T03:36:14.442Z,2.80
2022-08-29T03:37:13.006Z,2.70
2022-08-29T03:38:13.209Z,2.80
2022-08-29T03:39:12.979Z,2.60
2022-08-29T03:40:13.063Z,3.10
2022-08-29T03:41:13.000Z,2.80
2022-08-29T03:42:12.991Z,2.80
2022-08-29T03:43:12.949Z,3.00
2022-08-29T03:44:12.971Z,2.80
2022-08-29T03:45:12.919Z,2.80
2022-08-29T03:46:13.082Z,2.60
2022-08-29T03:47:12.898Z,3.10
2022-08-29T03:48:12.973Z,2.90
2022-08-29T03:49:12.871Z,2.80
2022-08-29T03:50:12.861Z,3.80
2022-08-29T03:51:12.851Z,2.50
2022-08-29T03:52:12.843Z,3.50
2022-08-29T03:53:12.841Z,2.80
2022-08-29T03:54:12.821Z,3.00
2022-08-29T03:55:12.813Z,3.20
2022-08-29T03:56:18.364Z,3.10
2022-08-29T03:57:13.793Z,3.00
2022-08-29T03:58:13.134Z,3.50
2022-08-29T03:59:12.766Z,3.00
2022-08-29T04:00:12.764Z,2.90
2022-08-29T04:01:12.752Z,3.00
2022-08-29T04:02:12.785Z,3.60
2022-08-29T04:03:12.794Z,3.00
2022-08-29T04:04:12.754Z,3.00
2022-08-29T04:05:12.705Z,3.20
2022-08-29T04:06:12.774Z,2.80
2022-08-29T04:07:12.676Z,3.10
2022-08-29T04:08:12.794Z,2.90
2022-08-29T04:09:12.654Z,3.40
2022-08-29T04:10:12.778Z,3.40
2022-08-29T04:11:12.634Z,3.20
2022-08-29T04:12:12.775Z,3.10
2022-08-29T04:13:12.638Z,3.50
2022-08-29T04:14:12.606Z,3.10
2022-08-29T04:15:12.585Z,3.30
2022-08-29T04:16:12.808Z,2.80
2022-08-29T04:17:12.585Z,3.10
2022-08-29T04:18:12.556Z,3.10
2022-08-29T04:19:12.547Z,3.20
2022-08-29T04:20:12.537Z,3.30
2022-08-29T04:21:12.527Z,3.00
2022-08-29T04:22:12.547Z,3.30
2022-08-29T04:23:12.508Z,3.60
2022-08-29T04:24:12.617Z,3.30
2022-08-29T04:25:12.487Z,2.80
2022-08-29T04:26:31.750Z,3.00
2022-08-29T04:27:13.476Z,2.80
2022-08-29T04:28:12.558Z,2.80
2022-08-29T04:29:12.452Z,3.00
2022-08-29T04:30:12.438Z,3.10
2022-08-29T04:31:12.439Z,3.10
2022-08-29T04:32:12.483Z,3.00
2022-08-29T04:33:16.181Z,3.10
2022-08-29T04:34:13.378Z,2.70
2022-08-29T04:35:12.381Z,3.10
2022-08-29T04:36:14.994Z,3.30
2022-08-29T04:37:12.379Z,3.20
2022-08-29T04:38:12.400Z,3.00
2022-08-29T04:39:12.328Z,3.20
2022-08-29T04:40:12.391Z,3.20
2022-08-29T04:41:12.311Z,3.10
2022-08-29T04:42:13.155Z,4.10
2022-08-29T04:43:12.299Z,3.50
2022-08-29T04:44:12.341Z,3.30
2022-08-29T04:45:12.262Z,3.10
2022-08-29T04:46:16.385Z,3.10
2022-08-29T04:47:13.266Z,3.10
2022-08-29T04:48:12.233Z,3.30
2022-08-29T04:49:12.224Z,3.30
2022-08-29T04:50:12.278Z,3.10
2022-08-29T04:51:12.197Z,3.30
2022-08-29T04:52:12.208Z,3.50
2022-08-29T04:53:12.183Z,3.40
2022-08-29T04:54:12.220Z,3.00
2022-08-29T04:55:12.163Z,3.20
2022-08-29T04:56:12.132Z,3.20
2022-08-29T04:57:12.142Z,3.20
2022-08-29T04:58:12.123Z,3.30
2022-08-29T04:59:12.144Z,3.50
2022-08-29T05:00:12.102Z,3.80
2022-08-29T05:01:12.125Z,3.20
2022-08-29T05:02:12.174Z,3.30
2022-08-29T05:03:12.120Z,3.70
2022-08-29T05:04:14.515Z,3.20
2022-08-29T05:05:12.044Z,3.50
2022-08-29T05:06:12.046Z,3.80
2022-08-29T05:07:12.025Z,3.40
2022-08-29T05:08:12.078Z,4.00
2022-08-29T05:09:11.996Z,3.90
2022-08-29T05:10:12.028Z,3.70
2022-08-29T05:11:11.981Z,3.40
2022-08-29T05:12:11.978Z,3.40
2022-08-29T05:13:11.966Z,3.80
2022-08-29T05:14:11.958Z,3.40
2022-08-29T05:15:11.938Z,3.90
2022-08-29T05:16:12.005Z,3.30
2022-08-29T05:17:11.908Z,3.30
2022-08-29T05:18:11.919Z,3.40
2022-08-29T05:19:15.564Z,3.80
2022-08-29T05:20:12.055Z,3.50
2022-08-29T05:21:11.858Z,3.70
2022-08-29T05:22:11.869Z,4.00
2022-08-29T05:23:11.867Z,3.90
2022-08-29T05:24:11.887Z,3.80
2022-08-29T05:25:17.304Z,3.50
2022-08-29T05:26:12.933Z,4.00
2022-08-29T05:27:11.798Z,3.80
2022-08-29T05:28:11.838Z,3.60
2022-08-29T05:29:11.779Z,3.70
2022-08-29T05:30:11.830Z,3.80
2022-08-29T05:31:13.733Z,3.60
2022-08-29T05:32:11.758Z,3.50
2022-08-29T05:33:11.741Z,4.40
2022-08-29T05:34:33.796Z,3.60
2022-08-29T05:35:12.709Z,3.00
2022-08-29T05:36:11.749Z,3.50
2022-08-29T05:37:11.690Z,3.60
2022-08-29T05:38:11.855Z,3.50
2022-08-29T05:39:11.675Z,3.60
2022-08-29T05:40:11.739Z,4.00
2022-08-29T05:41:11.649Z,4.00
2022-08-29T05:42:11.671Z,3.70
2022-08-29T05:43:11.632Z,3.90
2022-08-29T05:44:11.696Z,3.70
2022-08-29T05:45:11.592Z,4.00
2022-08-29T05:46:11.663Z,4.70
2022-08-29T05:47:11.583Z,4.30
2022-08-29T05:48:11.673Z,4.10
2022-08-29T05:49:11.580Z,3.90
2022-08-29T05:50:11.618Z,3.70
2022-08-29T05:51:11.543Z,4.50
2022-08-29T05:52:11.721Z,4.10
2022-08-29T05:53:11.524Z,4.50
2022-08-29T05:54:11.546Z,4.50
2022-08-29T05:55:11.504Z,4.80
2022-08-29T05:56:11.506Z,4.70
2022-08-29T05:57:15.397Z,4.70
2022-08-29T05:58:12.501Z,4.70
2022-08-29T05:59:11.445Z,5.00
2022-08-29T06:00:11.455Z,4.90
2022-08-29T06:01:11.429Z,4.40
2022-08-29T06:02:11.584Z,4.80
2022-08-29T06:03:11.571Z,6.50
2022-08-29T06:04:11.507Z,5.00
2022-08-29T06:05:11.376Z,5.10
2022-08-29T06:06:11.397Z,5.00
2022-08-29T06:07:11.370Z,5.20
2022-08-29T06:08:11.433Z,4.90
2022-08-29T06:09:11.341Z,4.70
2022-08-29T06:10:11.348Z,4.70
2022-08-29T06:11:11.369Z,5.10
2022-08-29T06:12:11.321Z,5.10
2022-08-29T06:13:11.329Z,5.00
2022-08-29T06:14:11.351Z,5.10
2022-08-29T06:15:11.277Z,5.50
2022-08-29T06:16:11.305Z,4.80
2022-08-29T06:17:11.254Z,5.50
2022-08-29T06:18:11.309Z,5.20
2022-08-29T06:19:11.240Z,5.90
2022-08-29T06:20:11.248Z,5.50
2022-08-29T06:21:11.210Z,6.80
2022-08-29T06:22:11.251Z,6.00
2022-08-29T06:23:11.199Z,4.80
2022-08-29T06:24:11.188Z,5.00
2022-08-29T06:25:37.373Z,4.80
2022-08-29T06:26:12.209Z,4.80
2022-08-29T06:27:11.132Z,4.60
2022-08-29T06:28:11.212Z,4.80
2022-08-29T06:29:11.115Z,4.90
2022-08-29T06:30:11.164Z,4.50
2022-08-29T06:31:11.145Z,4.60
2022-08-29T06:32:11.298Z,4.70
2022-08-29T06:33:11.074Z,4.70
2022-08-29T06:34:11.068Z,4.70
2022-08-29T06:35:11.075Z,5.10
2022-08-29T06:36:11.054Z,4.00
2022-08-29T06:37:11.039Z,4.40
2022-08-29T06:38:14.018Z,4.00
2022-08-29T06:39:11.015Z,4.30
2022-08-29T06:40:11.115Z,4.30
2022-08-29T06:41:10.979Z,4.40
2022-08-29T06:42:10.992Z,4.20
2022-08-29T06:43:10.974Z,4.50
2022-08-29T06:44:10.958Z,3.90
2022-08-29T06:45:10.936Z,4.10
2022-08-29T06:46:10.946Z,4.10
2022-08-29T06:47:10.918Z,3.90
2022-08-29T06:48:10.988Z,4.20
2022-08-29T06:49:10.921Z,4.40
2022-08-29T06:50:10.938Z,3.70
2022-08-29T06:51:10.870Z,4.10
2022-08-29T06:52:10.931Z,4.20
2022-08-29T06:53:26.916Z,4.00
2022-08-29T06:54:11.856Z,3.70
2022-08-29T06:55:10.827Z,4.80
2022-08-29T06:56:11.437Z,4.20
2022-08-29T06:57:10.802Z,4.30
2022-08-29T06:58:10.820Z,4.00
2022-08-29T06:59:10.782Z,3.70
2022-08-29T07:00:16.886Z,4.50
2022-08-29T07:01:11.817Z,3.70
2022-08-29T07:02:10.936Z,4.30
2022-08-29T07:03:10.809Z,4.00
2022-08-29T07:04:14.302Z,4.10
2022-08-29T07:05:10.784Z,4.60
2022-08-29T07:06:10.705Z,4.30
2022-08-29T07:07:10.695Z,4.30
2022-08-29T07:08:10.817Z,3.90
2022-08-29T07:09:10.677Z,3.80
2022-08-29T07:10:10.806Z,3.70
2022-08-29T07:11:10.648Z,4.20
2022-08-29T07:12:10.657Z,3.60
2022-08-29T07:13:10.673Z,3.80
2022-08-29T07:14:10.648Z,4.10
2022-08-29T07:15:10.597Z,3.80
2022-08-29T07:16:10.878Z,4.20
2022-08-29T07:17:10.590Z,3.80
2022-08-29T07:18:11.710Z,3.50
2022-08-29T07:19:10.570Z,3.30
2022-08-29T07:20:10.590Z,4.20
2022-08-29T07:21:10.540Z,3.50
2022-08-29T07:22:10.549Z,4.20
2022-08-29T07:23:10.531Z,3.70
2022-08-29T07:24:10.540Z,3.70
2022-08-29T07:25:10.501Z,3.50
2022-08-29T07:26:10.629Z,3.50
2022-08-29T07:27:10.471Z,3.50
2022-08-29T07:28:10.565Z,3.50
2022-08-29T07:29:10.523Z,3.30
2022-08-29T07:30:10.604Z,3.50
2022-08-29T07:31:10.509Z,3.20
2022-08-29T07:32:10.505Z,3.30
2022-08-29T07:33:10.477Z,3.70
2022-08-29T07:34:10.493Z,3.70
2022-08-29T07:35:13.376Z,3.40
2022-08-29T07:36:10.386Z,3.10
2022-08-29T07:37:10.365Z,3.00
2022-08-29T07:38:10.394Z,3.20
2022-08-29T07:39:10.346Z,3.60
2022-08-29T07:40:10.414Z,3.30
2022-08-29T07:41:10.318Z,3.40
2022-08-29T07:42:10.338Z,3.10
2022-08-29T07:43:10.316Z,2.60
2022-08-29T07:44:10.331Z,2.80
2022-08-29T07:45:10.293Z,2.80
2022-08-29T07:46:10.452Z,2.80
2022-08-29T07:47:10.259Z,3.20
2022-08-29T07:48:10.394Z,3.10
2022-08-29T07:49:10.240Z,3.00
2022-08-29T07:50:10.291Z,3.30
2022-08-29T07:51:10.757Z,3.00
2022-08-29T07:52:10.234Z,2.80
2022-08-29T07:53:10.203Z,3.20
2022-08-29T07:54:10.203Z,2.80
2022-08-29T07:55:10.199Z,3.20
2022-08-29T07:56:10.208Z,2.90
2022-08-29T07:57:10.144Z,2.70
2022-08-29T07:58:10.162Z,3.40
2022-08-29T07:59:10.134Z,2.80
2022-08-29T08:00:10.173Z,3.10
2022-08-29T08:01:12.572Z,3.10
2022-08-29T08:02:11.302Z,3.00
2022-08-29T08:03:10.110Z,3.30
2022-08-29T08:04:10.105Z,3.00
2022-08-29T08:05:10.076Z,2.80
2022-08-29T08:06:10.239Z,3.10
2022-08-29T08:07:13.548Z,3.20
2022-08-29T08:08:15.230Z,2.70
2022-08-29T08:09:11.020Z,2.70
2022-08-29T08:10:10.027Z,2.80
2022-08-29T08:11:10.012Z,3.40
2022-08-29T08:12:10.021Z,3.20
2022-08-29T08:13:10.054Z,3.10
2022-08-29T08:14:10.073Z,3.10
2022-08-29T08:15:09.963Z,2.50
2022-08-29T08:16:09.956Z,2.90
2022-08-29T08:17:09.950Z,3.10
2022-08-29T08:18:10.310Z,2.90
2022-08-29T08:19:09.937Z,3.00
2022-08-29T08:20:09.944Z,2.80
2022-08-29T08:21:09.899Z,2.80
2022-08-29T08:22:10.120Z,2.90
2022-08-29T08:23:09.915Z,2.70
2022-08-29T08:24:09.955Z,2.60
2022-08-29T08:25:09.863Z,3.00
2022-08-29T08:26:09.849Z,3.00
2022-08-29T08:27:09.829Z,2.80
2022-08-29T08:28:09.882Z,2.70
2022-08-29T08:29:09.851Z,3.00
2022-08-29T08:30:09.883Z,2.50
2022-08-29T08:31:09.892Z,3.10
2022-08-29T08:32:09.813Z,2.80
2022-08-29T08:33:09.782Z,3.00
2022-08-29T08:34:09.772Z,2.80
2022-08-29T08:35:09.753Z,3.20
2022-08-29T08:36:09.764Z,3.00
2022-08-29T08:37:09.735Z,2.90
2022-08-29T08:38:09.880Z,2.70
2022-08-29T08:39:09.707Z,2.80
2022-08-29T08:40:09.903Z,3.40
2022-08-29T08:41:09.697Z,2.70
2022-08-29T08:42:09.698Z,3.20
2022-08-29T08:43:09.757Z,3.00
2022-08-29T08:44:09.737Z,2.80
2022-08-29T08:45:09.649Z,2.90
2022-08-29T08:46:09.707Z,2.90
2022-08-29T08:47:09.678Z,2.80
2022-08-29T08:48:09.685Z,2.70
2022-08-29T08:49:09.610Z,2.80
2022-08-29T08:50:09.773Z,2.50
2022-08-29T08:51:09.593Z,2.70
2022-08-29T08:52:10.479Z,2.80
2022-08-29T08:53:09.586Z,2.90
2022-08-29T08:54:09.570Z,2.90
2022-08-29T08:55:09.545Z,2.90
2022-08-29T08:56:09.575Z,3.00
2022-08-29T08:57:09.523Z,2.60
2022-08-29T08:58:09.585Z,2.70
2022-08-29T08:59:09.566Z,3.40
2022-08-29T09:00:09.547Z,2.70
2022-08-29T09:01:09.523Z,3.20
2022-08-29T09:02:09.574Z,2.80
2022-08-29T09:03:09.468Z,2.70
2022-08-29T09:04:09.568Z,2.30
2022-08-29T09:05:09.449Z,3.40
2022-08-29T09:06:09.437Z,2.60
2022-08-29T09:07:09.429Z,2.90
2022-08-29T09:08:09.492Z,2.70
2022-08-29T09:09:10.295Z,3.20
2022-08-29T09:10:09.455Z,3.10
2022-08-29T09:11:09.384Z,2.60
2022-08-29T09:12:09.493Z,2.40
2022-08-29T09:13:09.383Z,2.60
2022-08-29T09:14:09.427Z,2.90
2022-08-29T09:15:13.361Z,3.10
2022-08-29T09:16:09.402Z,2.80
2022-08-29T09:17:09.338Z,2.80
2022-08-29T09:18:13.536Z,2.60
2022-08-29T09:19:09.308Z,2.70
2022-08-29T09:20:09.413Z,2.70
2022-08-29T09:21:29.963Z,3.00
2022-08-29T09:22:10.300Z,3.20
2022-08-29T09:23:09.282Z,2.70
2022-08-29T09:24:09.279Z,3.00
2022-08-29T09:25:09.253Z,3.10
2022-08-29T09:26:09.265Z,3.10
2022-08-29T09:27:09.221Z,2.60
2022-08-29T09:28:09.283Z,2.50
2022-08-29T09:29:09.210Z,2.60
2022-08-29T09:30:09.279Z,2.20
2022-08-29T09:31:09.203Z,2.50
2022-08-29T09:32:09.364Z,2.60
2022-08-29T09:33:09.305Z,2.80
2022-08-29T09:34:11.733Z,2.60
2022-08-29T09:35:10.056Z,2.50
2022-08-29T09:36:09.152Z,2.90
2022-08-29T09:37:09.128Z,2.20
2022-08-29T09:38:09.117Z,2.60
2022-08-29T09:39:09.116Z,2.10
2022-08-29T09:40:09.261Z,2.70
2022-08-29T09:41:09.088Z,2.30
2022-08-29T09:42:09.089Z,2.10
2022-08-29T09:43:09.069Z,2.60
2022-08-29T09:44:09.124Z,2.80
2022-08-29T09:45:09.047Z,2.10
2022-08-29T09:46:09.270Z,2.40
2022-08-29T09:47:09.027Z,2.30
2022-08-29T09:48:09.075Z,2.00
2022-08-29T09:49:09.022Z,2.20
2022-08-29T09:50:09.087Z,2.40
2022-08-29T09:51:08.987Z,2.50
2022-08-29T09:52:09.033Z,2.10
2022-08-29T09:53:24.357Z,2.10
2022-08-29T09:54:10.017Z,2.10
2022-08-29T09:55:08.976Z,2.20
2022-08-29T09:56:09.001Z,2.00
2022-08-29T09:57:08.946Z,2.60
2022-08-29T09:58:09.016Z,2.20
2022-08-29T09:59:08.908Z,2.00
2022-08-29T10:00:08.899Z,2.10
2022-08-29T10:01:10.361Z,2.20
2022-08-29T10:02:08.983Z,2.40
2022-08-29T10:03:08.916Z,2.10
2022-08-29T10:04:08.945Z,1.90
2022-08-29T10:05:13.351Z,2.20
2022-08-29T10:06:08.881Z,1.90
2022-08-29T10:07:08.841Z,2.00
2022-08-29T10:08:08.934Z,2.40
2022-08-29T10:09:08.823Z,2.20
2022-08-29T10:10:08.880Z,2.30
2022-08-29T10:11:08.803Z,2.10
2022-08-29T10:12:09.155Z,2.00
2022-08-29T10:13:08.846Z,2.10
2022-08-29T10:14:12.703Z,2.20
2022-08-29T10:15:09.755Z,2.00
2022-08-29T10:16:08.933Z,2.10
2022-08-29T10:17:08.751Z,1.80
2022-08-29T10:18:08.747Z,2.10
2022-08-29T10:19:08.748Z,2.10
2022-08-29T10:20:08.727Z,2.00
2022-08-29T10:21:08.699Z,2.10
2022-08-29T10:22:08.792Z,2.30
2022-08-29T10:23:08.747Z,2.10
2022-08-29T10:24:09.030Z,2.00
2022-08-29T10:25:08.671Z,2.80
2022-08-29T10:26:08.926Z,2.40
2022-08-29T10:27:08.650Z,2.10
2022-08-29T10:28:08.861Z,1.80
2022-08-29T10:29:08.652Z,2.20
2022-08-29T10:30:08.656Z,2.10
2022-08-29T10:31:08.994Z,2.00
2022-08-29T10:32:08.665Z,2.20
2022-08-29T10:33:08.885Z,2.00
2022-08-29T10:34:08.625Z,2.30
2022-08-29T10:35:08.665Z,2.10
2022-08-29T10:36:08.692Z,1.90
2022-08-29T10:37:08.560Z,2.30
2022-08-29T10:38:08.766Z,2.20
2022-08-29T10:39:08.537Z,2.00
2022-08-29T10:40:08.796Z,2.90
2022-08-29T10:41:08.508Z,2.10
2022-08-29T10:42:08.539Z,2.10
2022-08-29T10:43:08.559Z,2.00
2022-08-29T10:44:08.571Z,2.10
2022-08-29T10:45:08.480Z,2.20
2022-08-29T10:46:08.653Z,2.30
2022-08-29T10:47:08.463Z,2.00
2022-08-29T10:48:08.544Z,2.00
2022-08-29T10:49:08.462Z,1.80
2022-08-29T10:50:16.972Z,1.80
2022-08-29T10:51:09.413Z,1.50
2022-08-29T10:52:08.431Z,2.00
2022-08-29T10:53:08.405Z,2.00
2022-08-29T10:54:08.457Z,1.80
2022-08-29T10:55:08.386Z,1.80
2022-08-29T10:56:08.426Z,1.70
2022-08-29T10:57:08.365Z,2.00
2022-08-29T10:58:12.500Z,2.20
2022-08-29T10:59:08.357Z,1.90
2022-08-29T11:00:08.447Z,2.00
2022-08-29T11:01:09.474Z,1.90
2022-08-29T11:02:08.426Z,2.00
2022-08-29T11:03:08.330Z,2.20
2022-08-29T11:04:08.449Z,2.50
2022-08-29T11:05:08.313Z,3.30
2022-08-29T11:06:08.313Z,2.40
2022-08-29T11:07:08.333Z,2.50
2022-08-29T11:08:09.707Z,1.70
2022-08-29T11:09:08.271Z,2.40
2022-08-29T11:10:08.324Z,2.30
2022-08-29T11:11:08.240Z,2.00
2022-08-29T11:12:08.245Z,2.00
2022-08-29T11:13:08.214Z,1.90
2022-08-29T11:14:08.238Z,1.80
2022-08-29T11:15:08.197Z,2.10
2022-08-29T11:16:08.440Z,1.90
2022-08-29T11:17:08.186Z,1.90
2022-08-29T11:18:08.426Z,1.90
2022-08-29T11:19:08.177Z,1.80
2022-08-29T11:20:08.199Z,1.70
2022-08-29T11:21:08.138Z,1.80
2022-08-29T11:22:08.163Z,1.80
2022-08-29T11:23:08.132Z,1.70
2022-08-29T11:24:08.111Z,1.60
2022-08-29T11:25:08.139Z,1.70
2022-08-29T11:26:08.137Z,1.60
2022-08-29T11:27:08.081Z,1.90
2022-08-29T11:28:08.155Z,1.80
2022-08-29T11:29:08.103Z,1.80
2022-08-29T11:30:08.124Z,1.80
2022-08-29T11:31:08.091Z,1.70
2022-08-29T11:32:08.035Z,1.70
2022-08-29T11:33:08.094Z,1.80
2022-08-29T11:34:08.043Z,1.80
2022-08-29T11:35:08.005Z,1.90
2022-08-29T11:36:08.016Z,2.00
2022-08-29T11:37:07.992Z,1.70
2022-08-29T11:38:08.038Z,1.80
2022-08-29T11:39:07.966Z,1.80
2022-08-29T11:40:08.048Z,1.70
2022-08-29T11:42:09.022Z,1.70
2022-08-29T11:43:12.420Z,1.70
2022-08-29T11:44:07.911Z,1.80
2022-08-29T11:45:07.955Z,1.70
2022-08-29T11:46:07.912Z,2.00
2022-08-29T11:47:07.953Z,2.10
2022-08-29T11:48:07.901Z,1.50
2022-08-29T11:49:07.864Z,1.80
2022-08-29T11:50:07.992Z,2.10
2022-08-29T11:51:07.846Z,2.00
2022-08-29T11:52:07.849Z,2.00
2022-08-29T11:53:07.997Z,1.90
2022-08-29T11:54:07.825Z,1.80
2022-08-29T11:55:07.816Z,2.10
2022-08-29T11:56:07.847Z,1.90
2022-08-29T11:57:07.797Z,2.10
2022-08-29T11:58:11.289Z,2.20
2022-08-29T11:59:07.796Z,2.00
2022-08-29T12:00:07.779Z,1.90
2022-08-29T12:01:08.109Z,1.90
2022-08-29T12:02:07.798Z,1.70
2022-08-29T12:03:15.060Z,2.10
2022-08-29T12:04:08.784Z,2.10
2022-08-29T12:05:07.712Z,2.20
2022-08-29T12:06:07.751Z,1.50
2022-08-29T12:07:07.720Z,1.80
2022-08-29T12:08:33.179Z,1.80
2022-08-29T12:09:13.221Z,2.00
2022-08-29T12:10:08.691Z,1.70
2022-08-29T12:11:07.654Z,1.70
2022-08-29T12:12:07.673Z,1.60
2022-08-29T12:13:07.643Z,2.10
2022-08-29T12:14:07.632Z,1.50
2022-08-29T12:15:07.616Z,2.00
2022-08-29T12:16:08.750Z,2.00
2022-08-29T12:17:07.617Z,1.90
2022-08-29T12:18:07.985Z,2.10
2022-08-29T12:19:07.578Z,1.80
2022-08-29T12:20:07.603Z,1.80
2022-08-29T12:21:07.559Z,2.10
2022-08-29T12:22:07.549Z,1.60
2022-08-29T12:23:08.605Z,1.70
2022-08-29T12:24:07.603Z,1.80
2022-08-29T12:25:07.528Z,1.70
2022-08-29T12:26:22.019Z,1.60
2022-08-29T12:27:10.905Z,2.00
2022-08-29T12:28:07.600Z,1.90
2022-08-29T12:29:10.565Z,1.70
2022-08-29T12:30:07.562Z,1.70
2022-08-29T12:31:07.484Z,2.30
2022-08-29T12:32:27.314Z,1.40
2022-08-29T12:33:08.499Z,1.70
2022-08-29T12:34:07.455Z,1.80
2022-08-29T12:35:07.417Z,1.70
2022-08-29T12:36:07.573Z,1.40
2022-08-29T12:37:07.396Z,2.00
2022-08-29T12:38:07.517Z,1.50
2022-08-29T12:39:07.389Z,2.30
2022-08-29T12:40:07.418Z,1.60
2022-08-29T12:41:07.358Z,2.00
2022-08-29T12:42:07.667Z,1.50
2022-08-29T12:43:07.377Z,2.10
2022-08-29T12:44:07.520Z,1.80
2022-08-29T12:45:07.321Z,1.70
2022-08-29T12:46:07.684Z,1.70
2022-08-29T12:47:07.375Z,1.80
2022-08-29T12:48:07.420Z,1.60
2022-08-29T12:49:07.294Z,1.70
2022-08-29T12:50:07.314Z,1.90
2022-08-29T12:51:07.299Z,1.70
2022-08-29T12:52:07.386Z,1.80
2022-08-29T12:53:07.286Z,1.70
2022-08-29T12:54:07.308Z,2.00
2022-08-29T12:55:07.257Z,1.80
2022-08-29T12:56:07.345Z,1.60
2022-08-29T12:57:07.235Z,1.60
2022-08-29T12:58:07.229Z,1.70
2022-08-29T12:59:07.198Z,1.90
2022-08-29T13:00:07.187Z,1.60
2022-08-29T13:01:07.238Z,1.70
2022-08-29T13:02:07.230Z,2.00
2022-08-29T13:03:09.449Z,1.80
2022-08-29T13:04:08.365Z,1.90
2022-08-29T13:05:07.297Z,2.10
2022-08-29T13:06:07.274Z,1.70
2022-08-29T13:07:07.162Z,2.00
2022-08-29T13:08:10.972Z,1.60
2022-08-29T13:09:08.104Z,1.90
2022-08-29T13:10:07.124Z,1.70
2022-08-29T13:11:07.102Z,1.80
2022-08-29T13:12:07.132Z,1.40
2022-08-29T13:13:07.063Z,1.40
2022-08-29T13:14:07.107Z,1.60
2022-08-29T13:15:07.034Z,1.70
2022-08-29T13:16:07.119Z,1.60
2022-08-29T13:17:07.015Z,1.80
2022-08-29T13:18:07.047Z,1.60
2022-08-29T13:19:11.324Z,1.80